Terminal Aerodrome Forecast
Issued by NWS Albany, NY

Home | Current Version | Previous Version | Text Only | Print | Product List | Glossary On
Versions: 1 2 3 4 5 6 7 8 9 10 11 12 13 14 15 16 17 18
000
FTUS41 KALY 271343 AAA
TAFPOU
TAF AMD
KPOU 271343Z 2714/2812 05008KT P6SM BKN025 OVC100
     FM271500 VRB04KT P6SM VCSH OVC015
     FM271800 06008KT 4SM -RA BR OVC008
     FM272200 VRB05KT P6SM VCSH OVC008=

USA.gov is the U.S. government's official web portal to all federal, state and local government web resources and services.